Impacts TAF Board
For situational awareness. Not to be used for flight planning purposes.
IDs:

KMSY - New Orleans/Armstron, LA, US

Issued at 1720 UTC 02 Oct 2022
Updated at 1943 UTC 02 Oct 2022
Potential Impact None Slight Moderate High
Time1931Z 02/20Z 02/21Z 02/22Z 02/23Z 03/00Z 03/01Z 03/02Z 03/03Z 03/04Z 03/05Z 03/06Z 03/07Z 03/08Z>>
Type OBS PRVL PRVL PRVL PRVL PRVL PRVL PRVL PRVL PRVL PRVL PRVL PRVL PRVL
VIS 10 >6 >6 >6 >6 >6 >6 >6 >6 >6 >6 >6 >6 >6
CIG -- -- -- -- -- -- -- -- -- -- -- -- -- --
Cover SCT FEW FEW FEW FEW FEW FEW FEW FEW FEW FEW FEW FEW FEW
FltCat VFR VFR VFR VFR VFR VFR VFR VFR VFR VFR VFR VFR VFR VFR
WX -- -- -- -- -- -- -- -- -- -- -- -- -- --
WDir 10 350 350 350 350 350 350 350 350 350 350 350 350 350
WSpd 6 7 7 7 7 7 7 7 7 7 7 7 7 7
WGst -- -- -- -- -- -- -- -- -- -- -- -- -- --
WSHgt -- -- -- -- -- -- -- -- -- -- -- -- -- --
WSDir -- -- -- -- -- -- -- -- -- -- -- -- -- --
WSSpd -- -- -- -- -- -- -- -- -- -- -- -- -- --
R02/20
XWnd 1 3 3 3 3 3 3 3 3 3 3 3 3 3
HWnd 6 6 6 6 6 6 6 6 6 6 6 6 6 6
R11/29
XWnd 6 6 6 6 6 6 6 6 6 6 6 6 6 6
HWnd -1 -3 -3 -3 -3 -3 -3 -3 -3 -3 -3 -3 -3 -3
Raw TAF
KMSY 021720Z 0218/0324 35007KT P6SM FEW250
  FM031400 02007KT P6SM FEW250


Raw METAR
KMSY 021931Z 01006KT 10SM FEW005 SCT250 28/08 A3004 RMK AO2 FU FEW005 T02830083
KMSY 021853Z 34007KT 10SM SCT250 28/09 A3005 RMK AO2 SLP180 T02780089
KMSY 021753Z 33007KT 10SM FEW250 26/12 A3008 RMK AO2 SLP189 T02610122 10261 20139 58006
KMSY 021653Z 33005KT 10SM FEW250 24/13 A3010 RMK AO2 SLP195 T02440128

METAR Board
Radar Display
Forecast Discussion
For situational awareness. Not to be used for flight planning purposes.